createdAt,value
2019-03-11T00:01:01.550Z,4.60
2019-03-11T00:02:04.769Z,4.60
2019-03-11T00:03:07.547Z,4.50
2019-03-11T00:04:11.057Z,4.50
2019-03-11T00:05:14.210Z,4.50
2019-03-11T00:06:16.913Z,4.40
2019-03-11T00:07:19.450Z,4.40
2019-03-11T00:08:21.990Z,4.40
2019-03-11T00:09:24.581Z,4.40
2019-03-11T00:10:27.199Z,4.30
2019-03-11T00:11:29.808Z,4.30
2019-03-11T00:12:32.512Z,4.30
2019-03-11T00:13:35.241Z,4.30
2019-03-11T00:14:37.980Z,4.40
2019-03-11T00:15:40.492Z,4.40
2019-03-11T00:16:43.132Z,4.30
2019-03-11T00:17:45.698Z,4.30
2019-03-11T00:18:48.295Z,4.30
2019-03-11T00:19:51.302Z,4.30
2019-03-11T00:20:53.914Z,4.30
2019-03-11T00:21:56.573Z,4.30
2019-03-11T00:22:59.244Z,4.40
2019-03-11T00:24:01.862Z,4.40
2019-03-11T00:25:04.853Z,4.40
2019-03-11T00:26:07.398Z,4.40
2019-03-11T00:27:09.924Z,4.40
2019-03-11T00:28:12.667Z,4.40
2019-03-11T00:29:15.517Z,4.30
2019-03-11T00:30:18.060Z,4.30
2019-03-11T00:31:20.823Z,4.30
2019-03-11T00:32:23.744Z,4.30
2019-03-11T00:33:26.733Z,4.30
2019-03-11T00:34:29.288Z,4.40
2019-03-11T00:35:32.149Z,4.30
2019-03-11T00:36:34.668Z,4.30
2019-03-11T00:37:37.196Z,4.40
2019-03-11T00:38:39.998Z,4.40
2019-03-11T00:39:42.539Z,4.50
2019-03-11T00:40:45.258Z,4.40
2019-03-11T00:41:47.798Z,4.50
2019-03-11T00:42:52.134Z,4.50
2019-03-11T00:43:54.939Z,4.60
2019-03-11T00:44:57.542Z,4.60
2019-03-11T00:46:00.105Z,4.60
2019-03-11T00:47:05.547Z,4.60
2019-03-11T00:48:08.130Z,4.60
2019-03-11T00:49:10.976Z,4.60
2019-03-11T00:50:14.116Z,4.70
2019-03-11T00:51:16.860Z,4.70
2019-03-11T00:52:19.413Z,4.70
2019-03-11T00:53:22.394Z,4.80
2019-03-11T00:54:24.951Z,4.80
2019-03-11T00:55:27.478Z,4.90
2019-03-11T00:56:30.203Z,4.90
2019-03-11T00:57:32.893Z,4.90
2019-03-11T00:58:35.450Z,5.00
2019-03-11T00:59:38.009Z,5.10
2019-03-11T01:00:40.622Z,5.10
2019-03-11T01:01:43.263Z,5.00
2019-03-11T01:02:45.806Z,5.00
2019-03-11T01:03:48.452Z,5.00
2019-03-11T01:04:51.204Z,5.00
2019-03-11T01:05:54.570Z,5.10
2019-03-11T01:07:01.058Z,5.10
2019-03-11T01:08:03.916Z,5.10
2019-03-11T01:09:08.495Z,5.10
2019-03-11T01:10:12.297Z,5.20
2019-03-11T01:11:15.478Z,5.20
2019-03-11T01:12:18.599Z,5.30
2019-03-11T01:13:24.114Z,5.30
2019-03-11T01:14:27.555Z,5.30
2019-03-11T01:15:30.855Z,5.40
2019-03-11T01:16:33.898Z,5.40
2019-03-11T01:17:36.821Z,5.40
2019-03-11T01:18:39.870Z,5.40
2019-03-11T01:19:42.851Z,5.40
2019-03-11T01:20:46.001Z,5.40
2019-03-11T01:21:49.469Z,5.40
2019-03-11T01:22:52.636Z,5.30
2019-03-11T01:23:56.705Z,5.30
2019-03-11T01:24:59.813Z,5.30
2019-03-11T01:26:02.922Z,5.30
2019-03-11T01:27:07.143Z,5.40
2019-03-11T01:28:10.299Z,5.40
2019-03-11T01:29:13.270Z,5.50
2019-03-11T01:30:16.430Z,5.50
2019-03-11T01:31:19.520Z,5.50
2019-03-11T01:32:22.899Z,5.70
2019-03-11T01:33:25.915Z,5.70
2019-03-11T01:34:29.115Z,5.70
2019-03-11T01:35:32.025Z,5.60
2019-03-11T01:36:34.696Z,5.70
2019-03-11T01:38:46.845Z,5.70
2019-03-11T01:39:50.323Z,5.60
2019-03-11T01:40:55.415Z,5.60
2019-03-11T01:41:58.338Z,5.60
2019-03-11T01:43:00.864Z,5.60
2019-03-11T01:44:03.412Z,5.70
2019-03-11T01:45:09.161Z,5.70
2019-03-11T01:46:11.953Z,5.60
2019-03-11T01:47:14.630Z,5.50
2019-03-11T01:48:17.279Z,5.50
2019-03-11T01:49:19.902Z,5.50
2019-03-11T01:50:22.421Z,5.40
2019-03-11T01:51:25.064Z,5.40
2019-03-11T01:52:27.616Z,5.30
2019-03-11T01:53:30.369Z,5.30
2019-03-11T01:54:33.006Z,5.30
2019-03-11T01:55:35.704Z,5.20
2019-03-11T01:56:38.345Z,5.20
2019-03-11T01:57:41.109Z,5.30
2019-03-11T01:58:43.661Z,5.20
2019-03-11T01:59:46.399Z,5.20
2019-03-11T02:00:49.038Z,5.20
2019-03-11T02:01:51.547Z,5.20
2019-03-11T02:02:54.271Z,5.20
2019-03-11T02:03:56.819Z,5.10
2019-03-11T02:05:00.009Z,5.10
2019-03-11T02:06:02.723Z,5.10
2019-03-11T02:07:05.447Z,5.10
2019-03-11T02:08:07.985Z,5.10
2019-03-11T02:09:12.185Z,5.20
2019-03-11T02:10:15.029Z,5.30
2019-03-11T02:11:17.598Z,5.20
2019-03-11T02:12:20.246Z,5.00
2019-03-11T02:13:22.948Z,5.00
2019-03-11T02:14:25.707Z,5.00
2019-03-11T02:15:28.243Z,4.80
2019-03-11T02:16:30.948Z,4.80
2019-03-11T02:17:33.494Z,4.80
2019-03-11T02:18:37.140Z,4.60
2019-03-11T02:19:39.711Z,4.60
2019-03-11T02:20:42.485Z,4.50
2019-03-11T02:21:45.128Z,4.40
2019-03-11T02:22:47.763Z,4.30
2019-03-11T02:23:50.445Z,4.30
2019-03-11T02:24:53.019Z,4.10
2019-03-11T02:25:55.731Z,4.00
2019-03-11T02:26:58.426Z,3.90
2019-03-11T02:28:01.138Z,3.80
2019-03-11T02:29:03.834Z,3.70
2019-03-11T02:30:08.309Z,3.70
2019-03-11T02:31:11.209Z,3.60
2019-03-11T02:32:13.862Z,3.60
2019-03-11T02:33:18.369Z,3.60
2019-03-11T02:34:20.906Z,3.50
2019-03-11T02:35:26.374Z,3.50
2019-03-11T02:36:29.113Z,3.40
2019-03-11T02:37:31.680Z,3.40
2019-03-11T02:38:34.214Z,3.30
2019-03-11T02:39:36.955Z,3.30
2019-03-11T02:40:39.506Z,3.30
2019-03-11T02:41:42.032Z,3.30
2019-03-11T02:42:44.696Z,3.30
2019-03-11T02:43:47.353Z,3.20
2019-03-11T02:44:50.041Z,3.20
2019-03-11T02:45:52.819Z,3.20
2019-03-11T02:46:57.360Z,3.20
2019-03-11T02:48:00.008Z,3.20
2019-03-11T02:49:02.784Z,3.20
2019-03-11T02:50:05.993Z,3.10
2019-03-11T02:51:08.567Z,3.10
2019-03-11T02:52:11.052Z,3.10
2019-03-11T02:53:13.632Z,3.10
2019-03-11T02:54:16.218Z,3.10
2019-03-11T02:55:18.761Z,3.20
2019-03-11T02:56:21.412Z,3.10
2019-03-11T02:57:24.110Z,3.20
2019-03-11T02:58:26.733Z,3.20
2019-03-11T02:59:29.255Z,3.20
2019-03-11T03:00:31.839Z,3.20
2019-03-11T03:01:54.031Z,3.30
2019-03-11T03:03:28.308Z,3.30
2019-03-11T03:04:35.534Z,3.30
2019-03-11T03:05:44.275Z,3.40
2019-03-11T03:06:47.093Z,3.40
2019-03-11T03:07:49.969Z,3.50
2019-03-11T03:08:52.653Z,3.40
2019-03-11T03:09:55.738Z,3.40
2019-03-11T03:10:58.405Z,3.40
2019-03-11T03:12:00.943Z,3.40
2019-03-11T03:13:03.702Z,3.50
2019-03-11T03:14:06.423Z,3.50
2019-03-11T03:15:09.310Z,3.50
2019-03-11T03:16:11.890Z,3.50
2019-03-11T03:17:14.502Z,3.50
2019-03-11T03:18:17.147Z,3.50
2019-03-11T03:19:19.694Z,3.50
2019-03-11T03:20:22.572Z,3.60
2019-03-11T03:21:25.241Z,3.60
2019-03-11T03:22:27.796Z,3.60
2019-03-11T03:23:30.330Z,3.60
2019-03-11T03:24:32.880Z,3.60
2019-03-11T03:25:35.412Z,3.60
2019-03-11T03:26:37.984Z,3.60
2019-03-11T03:27:40.711Z,3.60
2019-03-11T03:28:43.318Z,3.60
2019-03-11T03:29:46.111Z,3.60
2019-03-11T03:30:48.856Z,3.60
2019-03-11T03:31:51.479Z,3.60
2019-03-11T03:32:54.321Z,3.50
2019-03-11T03:33:57.033Z,3.50
2019-03-11T03:34:59.825Z,3.50
2019-03-11T03:36:02.665Z,3.50
2019-03-11T03:37:05.497Z,3.40
2019-03-11T03:38:08.175Z,3.40
2019-03-11T03:39:10.857Z,3.40
2019-03-11T03:40:13.706Z,3.40
2019-03-11T03:41:16.635Z,3.40
2019-03-11T03:42:19.566Z,3.40
2019-03-11T03:43:22.327Z,3.40
2019-03-11T03:44:27.184Z,3.40
2019-03-11T03:45:35.057Z,3.40
2019-03-11T03:46:37.754Z,3.40
2019-03-11T03:47:40.276Z,3.50
2019-03-11T03:48:42.926Z,3.50
2019-03-11T03:49:45.551Z,3.50
2019-03-11T03:50:48.267Z,3.50
2019-03-11T03:51:50.905Z,3.40
2019-03-11T03:52:54.826Z,3.40
2019-03-11T03:53:57.355Z,3.40
2019-03-11T03:55:00.368Z,3.40
2019-03-11T03:56:03.319Z,3.40
2019-03-11T03:57:06.036Z,3.40
2019-03-11T03:58:08.835Z,3.40
2019-03-11T03:59:11.570Z,3.40
2019-03-11T04:00:15.436Z,3.40
2019-03-11T04:01:18.147Z,3.40
2019-03-11T04:02:21.092Z,3.40
2019-03-11T04:03:23.607Z,3.50
2019-03-11T04:04:26.146Z,3.50
2019-03-11T04:05:28.925Z,3.40
2019-03-11T04:06:31.675Z,3.40
2019-03-11T04:07:34.414Z,3.40
2019-03-11T04:08:37.122Z,3.40
2019-03-11T04:09:39.728Z,3.50
2019-03-11T04:10:42.380Z,3.50
2019-03-11T04:11:45.033Z,3.50
2019-03-11T04:12:47.589Z,3.50
2019-03-11T04:13:50.481Z,3.50
2019-03-11T04:14:53.174Z,3.50
2019-03-11T04:15:55.906Z,3.50
2019-03-11T04:16:58.684Z,3.50
2019-03-11T04:18:01.515Z,3.60
2019-03-11T04:19:04.355Z,3.70
2019-03-11T04:20:09.465Z,3.70
2019-03-11T04:21:12.308Z,3.70
2019-03-11T04:22:14.975Z,3.70
2019-03-11T04:23:17.621Z,3.70
2019-03-11T04:24:20.145Z,3.70
2019-03-11T04:25:22.945Z,3.70
2019-03-11T04:26:28.263Z,3.70
2019-03-11T04:27:31.002Z,3.70
2019-03-11T04:28:33.726Z,3.80
2019-03-11T04:29:37.494Z,3.70
2019-03-11T04:30:40.356Z,3.70
2019-03-11T04:31:43.157Z,3.70
2019-03-11T04:32:46.033Z,3.70
2019-03-11T04:33:48.553Z,3.70
2019-03-11T04:34:51.282Z,3.70
2019-03-11T04:35:55.650Z,3.70
2019-03-11T04:36:58.258Z,3.70
2019-03-11T04:38:00.860Z,3.80
2019-03-11T04:39:04.940Z,3.70
2019-03-11T04:40:08.828Z,3.80
2019-03-11T04:41:11.463Z,3.70
2019-03-11T04:42:14.100Z,3.70
2019-03-11T04:43:29.285Z,3.70
2019-03-11T04:44:31.856Z,3.80
2019-03-11T04:45:35.521Z,3.70
2019-03-11T04:46:38.239Z,3.60
2019-03-11T04:47:40.830Z,3.60
2019-03-11T04:48:43.809Z,3.50
2019-03-11T04:49:46.397Z,3.50
2019-03-11T04:50:49.156Z,3.60
2019-03-11T04:51:52.018Z,3.60
2019-03-11T04:52:54.566Z,3.50
2019-03-11T04:53:57.413Z,3.50
2019-03-11T04:54:59.953Z,3.50
2019-03-11T04:56:02.511Z,3.60
2019-03-11T04:57:05.274Z,3.60
2019-03-11T04:58:07.950Z,3.50
2019-03-11T04:59:13.631Z,3.60
2019-03-11T05:00:21.736Z,3.60
2019-03-11T05:01:24.618Z,3.70
2019-03-11T05:02:27.163Z,3.70
2019-03-11T05:03:29.691Z,3.60
2019-03-11T05:04:33.323Z,3.60
2019-03-11T05:05:36.013Z,3.60
2019-03-11T05:06:38.574Z,3.80
2019-03-11T05:07:41.115Z,3.80
2019-03-11T05:08:43.965Z,3.80
2019-03-11T05:09:46.538Z,3.80
2019-03-11T05:10:49.099Z,4.00
2019-03-11T05:11:51.805Z,4.00
2019-03-11T05:12:54.348Z,4.00
2019-03-11T05:13:57.043Z,4.00
2019-03-11T05:14:59.646Z,3.90
2019-03-11T05:16:04.158Z,3.90
2019-03-11T05:17:06.885Z,3.90
2019-03-11T05:18:09.420Z,3.80
2019-03-11T05:19:12.159Z,3.80
2019-03-11T05:20:15.015Z,3.70
2019-03-11T05:21:17.656Z,3.70
2019-03-11T05:22:20.406Z,3.70
2019-03-11T05:23:23.018Z,3.80
2019-03-11T05:24:25.883Z,3.90
2019-03-11T05:25:28.429Z,3.90
2019-03-11T05:26:30.973Z,3.90
2019-03-11T05:27:33.698Z,4.00
2019-03-11T05:28:36.442Z,4.00
2019-03-11T05:29:39.067Z,4.00
2019-03-11T05:30:41.722Z,3.90
2019-03-11T05:31:44.439Z,4.00
2019-03-11T05:32:47.000Z,4.00
2019-03-11T05:33:49.539Z,4.10
2019-03-11T05:34:52.435Z,4.10
2019-03-11T05:35:54.963Z,4.10
2019-03-11T05:36:57.687Z,4.00
2019-03-11T05:38:00.204Z,4.10
2019-03-11T05:39:04.068Z,4.10
2019-03-11T05:40:07.312Z,4.00
2019-03-11T05:41:09.896Z,4.00
2019-03-11T05:42:12.418Z,4.00
2019-03-11T05:43:15.222Z,4.10
2019-03-11T05:44:17.878Z,4.00
2019-03-11T05:45:20.726Z,4.00
2019-03-11T05:46:23.636Z,4.00
2019-03-11T05:47:26.293Z,4.00
2019-03-11T05:48:29.217Z,3.90
2019-03-11T05:49:33.002Z,4.00
2019-03-11T05:50:35.533Z,4.10
2019-03-11T05:51:38.483Z,4.10
2019-03-11T05:52:41.189Z,4.10
2019-03-11T05:53:43.938Z,4.10
2019-03-11T05:54:46.609Z,4.10
2019-03-11T05:55:49.268Z,4.10
2019-03-11T05:56:52.124Z,4.10
2019-03-11T05:57:54.775Z,4.10
2019-03-11T05:58:57.361Z,4.10
2019-03-11T05:59:59.931Z,4.20
2019-03-11T06:01:02.541Z,4.20
2019-03-11T06:02:05.265Z,4.20
2019-03-11T06:03:07.936Z,4.30
2019-03-11T06:04:10.587Z,4.20
2019-03-11T06:05:13.737Z,4.20
2019-03-11T06:06:16.342Z,4.30
2019-03-11T06:07:18.894Z,4.30
2019-03-11T06:08:22.993Z,4.30
2019-03-11T06:09:25.800Z,4.30
2019-03-11T06:10:28.586Z,4.30
2019-03-11T06:11:31.425Z,4.30
2019-03-11T06:12:34.150Z,4.30
2019-03-11T06:13:36.751Z,4.30
2019-03-11T06:14:39.295Z,4.30
2019-03-11T06:15:41.855Z,4.30
2019-03-11T06:16:44.406Z,4.30
2019-03-11T06:17:47.030Z,4.30
2019-03-11T06:18:51.973Z,4.30
2019-03-11T06:20:07.474Z,4.30
2019-03-11T06:21:30.452Z,4.30
2019-03-11T06:22:33.511Z,4.30
2019-03-11T06:23:36.126Z,4.30
2019-03-11T06:24:38.668Z,4.30
2019-03-11T06:25:41.344Z,4.30
2019-03-11T06:26:44.033Z,4.40
2019-03-11T06:27:46.586Z,4.40
2019-03-11T06:28:49.301Z,4.40
2019-03-11T06:29:52.138Z,4.30
2019-03-11T06:30:54.802Z,4.30
2019-03-11T06:33:11.913Z,4.40
2019-03-11T06:34:14.460Z,4.40
2019-03-11T06:35:16.981Z,4.40
2019-03-11T06:36:19.660Z,4.40
2019-03-11T06:37:23.990Z,4.40
2019-03-11T06:38:26.651Z,4.40
2019-03-11T06:39:29.221Z,4.40
2019-03-11T06:40:31.906Z,4.40
2019-03-11T06:41:34.767Z,4.50
2019-03-11T06:42:37.324Z,4.50
2019-03-11T06:43:40.052Z,4.50
2019-03-11T06:44:43.031Z,4.50
2019-03-11T06:45:45.784Z,4.50
2019-03-11T06:46:48.361Z,4.50
2019-03-11T06:47:52.697Z,4.50
2019-03-11T06:48:55.617Z,4.60
2019-03-11T06:49:59.933Z,4.50
2019-03-11T06:51:02.593Z,4.50
2019-03-11T06:52:05.220Z,4.50
2019-03-11T06:53:07.904Z,4.60
2019-03-11T06:54:10.791Z,4.60
2019-03-11T06:55:13.608Z,4.60
2019-03-11T06:56:16.242Z,4.60
2019-03-11T06:57:18.891Z,4.70
2019-03-11T06:58:21.596Z,4.70
2019-03-11T06:59:24.235Z,4.80
2019-03-11T07:00:27.021Z,4.70
2019-03-11T07:01:29.655Z,4.80
2019-03-11T07:02:32.207Z,4.80
2019-03-11T07:03:34.703Z,4.80
2019-03-11T07:04:37.423Z,4.80
2019-03-11T07:05:39.935Z,4.90
2019-03-11T07:06:42.554Z,4.90
2019-03-11T07:07:45.111Z,4.90
2019-03-11T07:08:47.667Z,4.90
2019-03-11T07:09:50.389Z,4.90
2019-03-11T07:10:53.031Z,4.90
2019-03-11T07:11:55.590Z,4.90
2019-03-11T07:12:58.173Z,4.90
2019-03-11T07:14:00.715Z,4.90
2019-03-11T07:15:03.935Z,4.90
2019-03-11T07:16:09.287Z,4.90
2019-03-11T07:17:11.168Z,4.90
2019-03-11T07:18:13.978Z,4.90
2019-03-11T07:19:16.618Z,4.90
2019-03-11T07:20:19.453Z,4.90
2019-03-11T07:21:22.160Z,4.80
2019-03-11T07:22:24.787Z,4.80
2019-03-11T07:23:27.424Z,4.90
2019-03-11T07:24:31.676Z,4.90
2019-03-11T07:25:34.222Z,4.90
2019-03-11T07:26:36.782Z,4.90
2019-03-11T07:27:39.642Z,4.90
2019-03-11T07:28:42.306Z,4.90
2019-03-11T07:29:44.915Z,4.90
2019-03-11T07:30:47.443Z,4.80
2019-03-11T07:31:50.022Z,4.90
2019-03-11T07:32:52.840Z,4.90
2019-03-11T07:33:55.425Z,4.80
2019-03-11T07:35:08.006Z,4.80
2019-03-11T07:36:02.460Z,4.80
2019-03-11T07:37:05.649Z,4.70
2019-03-11T07:38:08.351Z,4.70
2019-03-11T07:39:11.063Z,4.70
2019-03-11T07:40:14.005Z,4.70
2019-03-11T07:41:16.631Z,4.70
2019-03-11T07:42:19.347Z,4.80
2019-03-11T07:43:21.959Z,4.80
2019-03-11T07:44:24.540Z,4.80
2019-03-11T07:45:29.035Z,4.80
2019-03-11T07:46:31.767Z,4.80
2019-03-11T07:47:34.486Z,4.90
2019-03-11T07:48:37.070Z,4.90
2019-03-11T07:49:39.838Z,4.90
2019-03-11T07:50:42.526Z,4.90
2019-03-11T07:51:45.183Z,4.90
2019-03-11T07:52:47.702Z,4.90
2019-03-11T07:53:50.223Z,5.00
2019-03-11T07:54:52.900Z,5.00
2019-03-11T07:55:55.682Z,4.90
2019-03-11T07:56:58.295Z,5.00
2019-03-11T07:58:00.855Z,5.00
2019-03-11T07:59:05.388Z,5.00
2019-03-11T08:00:08.629Z,5.20
2019-03-11T08:01:11.275Z,5.20
2019-03-11T08:02:14.013Z,5.20
2019-03-11T08:03:16.534Z,5.30
2019-03-11T08:04:19.261Z,5.40
2019-03-11T08:05:22.108Z,5.40
2019-03-11T08:06:25.023Z,5.50
2019-03-11T08:07:27.775Z,5.60
2019-03-11T08:08:30.503Z,5.60
2019-03-11T08:09:37.875Z,5.60
2019-03-11T08:10:37.713Z,5.50
2019-03-11T08:11:40.543Z,5.40
2019-03-11T08:12:44.921Z,5.20
2019-03-11T08:13:47.556Z,5.20
2019-03-11T08:14:50.320Z,5.20
2019-03-11T08:15:52.914Z,5.20
2019-03-11T08:16:56.084Z,5.20
2019-03-11T08:17:58.622Z,5.20
2019-03-11T08:19:01.253Z,5.10
2019-03-11T08:20:04.289Z,5.10
2019-03-11T08:21:07.895Z,5.20
2019-03-11T08:22:10.446Z,5.10
2019-03-11T08:23:12.995Z,5.10
2019-03-11T08:24:16.657Z,5.10
2019-03-11T08:25:19.596Z,5.10
2019-03-11T08:26:22.227Z,5.10
2019-03-11T08:27:24.750Z,5.10
2019-03-11T08:28:27.390Z,5.00
2019-03-11T08:29:29.914Z,5.00
2019-03-11T08:30:32.524Z,5.00
2019-03-11T08:31:35.365Z,5.10
2019-03-11T08:32:37.937Z,5.10
2019-03-11T08:33:40.466Z,5.00
2019-03-11T08:34:42.992Z,5.00
2019-03-11T08:35:45.550Z,5.10
2019-03-11T08:36:48.058Z,5.10
2019-03-11T08:37:50.770Z,5.10
2019-03-11T08:38:53.320Z,5.00
2019-03-11T08:39:55.923Z,5.00
2019-03-11T08:40:58.454Z,5.00
2019-03-11T08:42:00.994Z,5.00
2019-03-11T08:43:03.511Z,5.00
2019-03-11T08:44:06.312Z,5.00
2019-03-11T08:45:10.082Z,5.00
2019-03-11T08:46:12.817Z,4.90
2019-03-11T08:47:15.369Z,4.90
2019-03-11T08:48:17.935Z,4.90
2019-03-11T08:49:20.838Z,4.90
2019-03-11T08:50:23.784Z,4.90
2019-03-11T08:51:26.733Z,4.90
2019-03-11T08:52:29.362Z,4.90
2019-03-11T08:53:31.922Z,4.80
2019-03-11T08:54:34.983Z,4.90
2019-03-11T08:55:37.529Z,4.90
2019-03-11T08:56:40.180Z,5.00
2019-03-11T08:57:42.743Z,5.00
2019-03-11T08:58:45.662Z,5.00
2019-03-11T08:59:48.490Z,5.00
2019-03-11T09:00:51.059Z,5.10
2019-03-11T09:01:53.598Z,5.10
2019-03-11T09:02:56.165Z,5.20
2019-03-11T09:03:58.758Z,5.30
2019-03-11T09:05:01.543Z,5.30
2019-03-11T09:06:04.104Z,5.20
2019-03-11T09:07:08.622Z,5.30
2019-03-11T09:08:11.289Z,5.20
2019-03-11T09:09:13.954Z,5.30
2019-03-11T09:10:16.849Z,5.30
2019-03-11T09:11:19.419Z,5.30
2019-03-11T09:12:23.045Z,5.20
2019-03-11T09:13:25.585Z,5.20
2019-03-11T09:14:29.894Z,5.10
2019-03-11T09:15:33.510Z,5.10
2019-03-11T09:16:36.306Z,5.20
2019-03-11T09:17:39.985Z,5.20
2019-03-11T09:18:42.523Z,5.20
2019-03-11T09:19:45.167Z,5.20
2019-03-11T09:20:47.699Z,5.20
2019-03-11T09:21:50.599Z,5.20
2019-03-11T09:22:54.228Z,5.20
2019-03-11T09:23:57.954Z,5.20
2019-03-11T09:25:00.685Z,5.30
2019-03-11T09:26:03.267Z,5.30
2019-03-11T09:27:05.882Z,5.30
2019-03-11T09:28:08.835Z,5.20
2019-03-11T09:29:12.479Z,5.30
2019-03-11T09:30:16.755Z,5.10
2019-03-11T09:31:19.295Z,5.00
2019-03-11T09:32:21.964Z,5.10
2019-03-11T09:33:24.494Z,5.10
2019-03-11T09:34:27.227Z,5.00
2019-03-11T09:35:29.846Z,5.00
2019-03-11T09:36:33.877Z,5.00
2019-03-11T09:37:36.446Z,5.00
2019-03-11T09:38:38.986Z,5.00
2019-03-11T09:39:41.524Z,5.00
2019-03-11T09:40:44.258Z,4.90
2019-03-11T09:41:49.107Z,4.90
2019-03-11T09:42:51.901Z,4.80
2019-03-11T09:43:54.543Z,4.80
2019-03-11T09:44:57.130Z,4.90
2019-03-11T09:45:59.749Z,5.00
2019-03-11T09:47:02.311Z,5.00
2019-03-11T09:48:05.050Z,5.00
2019-03-11T09:49:07.678Z,5.10
2019-03-11T09:50:11.051Z,5.10
2019-03-11T09:51:14.203Z,5.10
2019-03-11T09:52:16.927Z,5.00
2019-03-11T09:53:20.983Z,5.00
2019-03-11T09:54:23.640Z,5.00
2019-03-11T09:55:26.459Z,4.90
2019-03-11T09:56:29.290Z,4.90
2019-03-11T09:57:31.839Z,4.90
2019-03-11T09:58:34.379Z,4.90
2019-03-11T09:59:37.017Z,4.90
2019-03-11T10:00:39.712Z,4.90
2019-03-11T10:01:42.335Z,5.00
2019-03-11T10:02:52.097Z,5.00
2019-03-11T10:03:49.741Z,5.00
2019-03-11T10:04:52.421Z,5.00
2019-03-11T10:05:55.153Z,4.90
2019-03-11T10:06:57.758Z,4.90
2019-03-11T10:08:00.593Z,4.90
2019-03-11T10:09:05.037Z,4.80
2019-03-11T10:10:09.607Z,4.80
2019-03-11T10:11:12.386Z,4.80
2019-03-11T10:12:14.935Z,4.70
2019-03-11T10:13:17.800Z,4.60
2019-03-11T10:14:22.142Z,4.60
2019-03-11T10:15:24.768Z,4.50
2019-03-11T10:16:27.606Z,4.50
2019-03-11T10:17:30.386Z,4.50
2019-03-11T10:18:33.270Z,4.50
2019-03-11T10:19:35.858Z,4.50
2019-03-11T10:20:38.386Z,4.40
2019-03-11T10:21:41.079Z,4.40
2019-03-11T10:22:44.515Z,4.40
2019-03-11T10:23:47.283Z,4.30
2019-03-11T10:24:49.834Z,4.30
2019-03-11T10:25:52.596Z,4.30
2019-03-11T10:26:55.254Z,4.30
2019-03-11T10:27:59.567Z,4.30
2019-03-11T10:29:02.088Z,4.30
2019-03-11T10:30:05.705Z,4.40
2019-03-11T10:31:08.393Z,4.30
2019-03-11T10:32:10.935Z,4.40
2019-03-11T10:33:13.502Z,4.40
2019-03-11T10:34:16.151Z,4.50
2019-03-11T10:35:31.233Z,4.50
2019-03-11T10:36:23.764Z,4.60
2019-03-11T10:37:26.417Z,4.60
2019-03-11T10:38:29.148Z,4.50
2019-03-11T10:39:31.687Z,4.60
2019-03-11T10:40:34.650Z,4.60
2019-03-11T10:41:37.341Z,4.70
2019-03-11T10:42:40.163Z,4.80
2019-03-11T10:43:44.542Z,4.90
2019-03-11T10:44:47.241Z,4.90
2019-03-11T10:45:49.769Z,5.00
2019-03-11T10:46:52.528Z,5.10
2019-03-11T10:47:55.216Z,5.10
2019-03-11T10:49:17.270Z,5.10
2019-03-11T10:50:21.139Z,5.10
2019-03-11T10:51:23.761Z,5.10
2019-03-11T10:52:26.323Z,5.10
2019-03-11T10:53:28.908Z,5.10
2019-03-11T10:54:31.435Z,5.10
2019-03-11T10:55:33.984Z,5.00
2019-03-11T10:56:36.694Z,5.00
2019-03-11T10:57:39.251Z,5.00
2019-03-11T10:58:42.059Z,5.00
2019-03-11T10:59:44.624Z,5.00
2019-03-11T11:00:47.438Z,5.00
2019-03-11T11:01:49.955Z,5.00
2019-03-11T11:02:53.156Z,5.10
2019-03-11T11:03:55.814Z,5.00
2019-03-11T11:04:58.413Z,5.10
2019-03-11T11:06:00.952Z,5.10
2019-03-11T11:07:05.108Z,5.00
2019-03-11T11:08:07.653Z,5.10
2019-03-11T11:09:10.329Z,5.00
2019-03-11T11:10:12.984Z,5.30
2019-03-11T11:11:15.630Z,5.20
2019-03-11T11:12:18.260Z,5.20
2019-03-11T11:13:20.968Z,5.20
2019-03-11T11:14:23.624Z,5.30
2019-03-11T11:15:26.300Z,5.30
2019-03-11T11:16:31.871Z,5.30
2019-03-11T11:17:36.344Z,5.40
2019-03-11T11:18:39.080Z,5.40
2019-03-11T11:19:42.113Z,5.50
2019-03-11T11:20:44.759Z,5.50
2019-03-11T11:21:47.418Z,5.50
2019-03-11T11:22:50.647Z,5.70
2019-03-11T11:23:53.391Z,5.70
2019-03-11T11:24:55.950Z,5.80
2019-03-11T11:25:58.494Z,5.80
2019-03-11T11:27:01.385Z,5.90
2019-03-11T11:28:04.280Z,6.00
2019-03-11T11:29:06.828Z,6.00
2019-03-11T11:30:12.887Z,6.10
2019-03-11T11:31:15.541Z,6.10
2019-03-11T11:32:18.194Z,6.10
2019-03-11T11:33:22.540Z,6.10
2019-03-11T11:34:25.095Z,6.10
2019-03-11T11:35:27.624Z,6.10
2019-03-11T11:36:30.363Z,6.10
2019-03-11T11:37:33.031Z,6.00
2019-03-11T11:38:35.552Z,6.00
2019-03-11T11:39:38.181Z,6.00
2019-03-11T11:40:40.806Z,6.00
2019-03-11T11:41:43.319Z,6.00
2019-03-11T11:42:46.172Z,6.10
2019-03-11T11:43:48.739Z,6.00
2019-03-11T11:44:51.389Z,6.10
2019-03-11T11:45:53.916Z,6.20
2019-03-11T11:46:56.547Z,6.20
2019-03-11T11:47:59.189Z,6.30
2019-03-11T11:49:03.750Z,6.30
2019-03-11T11:50:07.975Z,6.30
2019-03-11T11:51:10.684Z,6.40
2019-03-11T11:52:16.729Z,6.40
2019-03-11T11:53:19.438Z,6.40
2019-03-11T11:54:21.957Z,6.50
2019-03-11T11:55:24.594Z,6.50
2019-03-11T11:56:27.152Z,6.60
2019-03-11T11:57:29.828Z,6.60
2019-03-11T11:58:34.364Z,6.60
2019-03-11T11:59:37.014Z,6.60
2019-03-11T12:00:41.320Z,6.60
2019-03-11T12:01:45.175Z,6.60
2019-03-11T12:02:47.962Z,6.60
2019-03-11T12:03:50.512Z,6.70
2019-03-11T12:04:53.299Z,6.70
2019-03-11T12:05:55.887Z,6.60
2019-03-11T12:06:58.552Z,6.50
2019-03-11T12:08:01.095Z,6.50
2019-03-11T12:09:06.012Z,6.50
2019-03-11T12:10:10.517Z,6.40
2019-03-11T12:11:13.070Z,6.40
2019-03-11T12:12:15.858Z,6.30
2019-03-11T12:13:18.764Z,6.30
2019-03-11T12:14:21.310Z,6.20
2019-03-11T12:15:24.012Z,6.10
2019-03-11T12:16:26.771Z,6.10
2019-03-11T12:17:30.532Z,6.10
2019-03-11T12:18:33.224Z,6.00
2019-03-11T12:19:36.007Z,6.00
2019-03-11T12:20:38.544Z,6.10
2019-03-11T12:21:41.243Z,6.10
2019-03-11T12:22:43.923Z,6.10
2019-03-11T12:23:46.968Z,6.00
2019-03-11T12:24:49.657Z,6.10
2019-03-11T12:25:52.188Z,6.00
2019-03-11T12:26:54.772Z,6.10
2019-03-11T12:27:58.361Z,6.10
2019-03-11T12:29:03.714Z,6.20
2019-03-11T12:30:10.410Z,6.20
2019-03-11T12:31:13.090Z,6.20
2019-03-11T12:32:17.622Z,6.10
2019-03-11T12:33:21.954Z,6.00
2019-03-11T12:34:26.181Z,5.90
2019-03-11T12:35:28.757Z,5.90
2019-03-11T12:36:31.301Z,5.90
2019-03-11T12:37:34.031Z,5.90
2019-03-11T12:38:39.078Z,5.90
2019-03-11T12:39:43.487Z,5.90
2019-03-11T12:40:46.010Z,5.90
2019-03-11T12:41:48.785Z,5.90
2019-03-11T12:42:51.526Z,6.00
2019-03-11T12:43:54.220Z,5.90
2019-03-11T12:44:56.970Z,5.80
2019-03-11T12:45:59.691Z,5.90
2019-03-11T12:47:02.289Z,5.90
2019-03-11T12:48:04.858Z,5.80
2019-03-11T12:49:07.381Z,5.90
2019-03-11T12:50:16.957Z,5.80
2019-03-11T12:51:19.619Z,5.90
2019-03-11T12:52:22.308Z,5.90
2019-03-11T12:53:24.880Z,5.90
2019-03-11T12:54:27.521Z,5.90
2019-03-11T12:55:30.146Z,5.90
2019-03-11T12:56:32.659Z,6.00
2019-03-11T12:57:35.186Z,6.00
2019-03-11T12:58:41.896Z,6.00
2019-03-11T12:59:42.319Z,6.10
2019-03-11T13:00:45.077Z,6.10
2019-03-11T13:01:47.736Z,6.10
2019-03-11T13:02:50.750Z,6.10
2019-03-11T13:03:53.481Z,6.20
2019-03-11T13:04:56.278Z,6.40
2019-03-11T13:05:59.009Z,6.50
2019-03-11T13:07:01.557Z,6.40
2019-03-11T13:08:04.244Z,6.40
2019-03-11T13:09:06.817Z,6.30
2019-03-11T13:10:11.688Z,6.30
2019-03-11T13:11:14.247Z,6.30
2019-03-11T13:12:16.805Z,6.30
2019-03-11T13:13:19.405Z,6.20
2019-03-11T13:14:22.108Z,6.20
2019-03-11T13:15:25.029Z,6.20
2019-03-11T13:16:27.829Z,6.20
2019-03-11T13:17:30.740Z,6.20
2019-03-11T13:18:41.289Z,6.40
2019-03-11T13:19:43.355Z,6.40
2019-03-11T13:20:45.940Z,6.50
2019-03-11T13:21:48.487Z,6.60
2019-03-11T13:22:51.565Z,6.60
2019-03-11T13:23:54.167Z,6.50
2019-03-11T13:24:56.787Z,6.50
2019-03-11T13:25:59.763Z,6.50
2019-03-11T13:27:02.640Z,6.40
2019-03-11T13:28:05.332Z,6.40
2019-03-11T13:29:07.998Z,6.40
2019-03-11T13:30:11.350Z,6.40
2019-03-11T13:31:14.104Z,6.40
2019-03-11T13:32:18.336Z,6.50
2019-03-11T13:33:20.902Z,6.40
2019-03-11T13:34:24.095Z,6.40
2019-03-11T13:35:27.003Z,6.40
2019-03-11T13:36:29.554Z,6.40
2019-03-11T13:37:32.069Z,6.40
2019-03-11T13:38:36.072Z,6.30
2019-03-11T13:39:38.715Z,6.30
2019-03-11T13:40:41.455Z,6.20
2019-03-11T13:41:45.014Z,6.30
2019-03-11T13:42:47.603Z,6.30
2019-03-11T13:43:50.219Z,6.30
2019-03-11T13:44:53.920Z,6.20
2019-03-11T13:45:56.711Z,6.30
2019-03-11T13:47:01.026Z,6.30
2019-03-11T13:48:03.997Z,6.30
2019-03-11T13:49:08.364Z,6.30
2019-03-11T13:50:10.909Z,6.40
2019-03-11T13:51:13.664Z,6.50
2019-03-11T13:52:16.314Z,6.50
2019-03-11T13:53:19.988Z,6.50
2019-03-11T13:54:22.636Z,6.40
2019-03-11T13:55:26.706Z,6.50
2019-03-11T13:56:29.716Z,6.50
2019-03-11T13:57:32.269Z,6.50
2019-03-11T13:58:34.992Z,6.50
2019-03-11T13:59:37.640Z,6.50
2019-03-11T14:00:40.266Z,6.50
2019-03-11T14:01:44.847Z,6.40
2019-03-11T14:02:47.554Z,6.40